createdAt,value
2023-02-11T00:01:12.004Z,31.10
2023-02-11T00:03:39.585Z,27.67
2023-02-11T00:06:11.196Z,28.93
2023-02-11T00:08:39.177Z,29.93
2023-02-11T00:11:06.625Z,31.93
2023-02-11T00:13:34.308Z,28.03
2023-02-11T00:16:06.806Z,46.20
2023-02-11T00:18:34.274Z,58.67
2023-02-11T00:21:01.600Z,47.13
2023-02-11T00:23:28.857Z,44.93
2023-02-11T00:25:56.073Z,49.77
2023-02-11T00:28:23.420Z,42.97
2023-02-11T00:30:57.839Z,37.13
2023-02-11T00:33:25.489Z,33.00
2023-02-11T00:35:53.064Z,29.33
2023-02-11T00:38:20.475Z,28.93
2023-02-11T00:40:47.768Z,30.67
2023-02-11T00:43:15.110Z,29.87
2023-02-11T00:45:42.550Z,28.20
2023-02-11T00:48:09.930Z,33.20
2023-02-11T00:50:37.229Z,27.67
2023-02-11T00:53:04.486Z,28.80
2023-02-11T00:55:31.816Z,29.83
2023-02-11T00:58:00.105Z,30.10
2023-02-11T01:00:27.700Z,30.93
2023-02-11T01:02:55.307Z,26.97
2023-02-11T01:05:23.117Z,26.73
2023-02-11T01:07:50.523Z,26.77
2023-02-11T01:10:17.910Z,29.37
2023-02-11T01:12:45.231Z,26.83
2023-02-11T01:15:14.470Z,32.10
2023-02-11T01:17:41.804Z,34.27
2023-02-11T01:20:09.867Z,33.60
2023-02-11T01:22:39.575Z,37.77
2023-02-11T01:25:07.637Z,37.83
2023-02-11T01:27:35.442Z,42.43
2023-02-11T01:30:02.730Z,47.50
2023-02-11T01:32:29.953Z,32.43
2023-02-11T01:34:57.552Z,36.10
2023-02-11T01:37:24.835Z,38.00
2023-02-11T01:39:52.174Z,32.27
2023-02-11T01:42:21.127Z,33.37
2023-02-11T01:44:52.277Z,34.60
2023-02-11T01:47:20.278Z,31.77
2023-02-11T01:49:53.264Z,30.07
2023-02-11T01:52:21.686Z,30.17
2023-02-11T01:55:10.327Z,28.33
2023-02-11T01:57:39.192Z,29.87
2023-02-11T02:00:09.595Z,25.20
2023-02-11T02:02:42.901Z,25.93
2023-02-11T02:05:29.076Z,24.90
2023-02-11T02:08:15.209Z,27.87
2023-02-11T02:10:44.476Z,22.20
2023-02-11T02:13:12.241Z,26.50
2023-02-11T02:15:40.935Z,21.23
2023-02-11T02:18:08.352Z,27.20
2023-02-11T02:20:35.632Z,23.93
2023-02-11T02:23:02.990Z,22.93
2023-02-11T02:25:36.486Z,25.30
2023-02-11T02:28:03.817Z,20.13
2023-02-11T02:30:46.570Z,22.77
2023-02-11T02:33:26.347Z,23.20
2023-02-11T02:35:59.874Z,26.33
2023-02-11T02:38:36.492Z,31.17
2023-02-11T02:41:17.422Z,26.10
2023-02-11T02:43:46.535Z,28.30
2023-02-11T02:46:19.962Z,30.57
2023-02-11T02:48:49.671Z,28.70
2023-02-11T02:51:22.927Z,29.20
2023-02-11T02:53:53.528Z,27.40
2023-02-11T02:56:20.804Z,32.50
2023-02-11T02:59:14.651Z,31.17
2023-02-11T03:01:51.083Z,33.90
2023-02-11T03:04:22.304Z,30.70
2023-02-11T03:07:10.269Z,27.67
2023-02-11T03:09:44.647Z,28.63
2023-02-11T03:12:13.544Z,30.20
2023-02-11T03:14:42.209Z,28.90
2023-02-11T03:17:10.786Z,27.00
2023-02-11T03:19:43.380Z,27.17
2023-02-11T03:22:25.715Z,27.70
2023-02-11T03:24:53.067Z,26.03
2023-02-11T03:27:20.345Z,26.23
2023-02-11T03:29:49.535Z,24.77
2023-02-11T03:32:35.000Z,24.23
2023-02-11T03:35:10.926Z,25.13
2023-02-11T03:37:41.363Z,25.67
2023-02-11T03:40:08.948Z,27.57
2023-02-11T03:42:43.456Z,24.50
2023-02-11T03:45:13.102Z,25.73
2023-02-11T03:47:42.775Z,27.90
2023-02-11T03:50:11.746Z,27.50
2023-02-11T03:52:39.588Z,28.53
2023-02-11T03:55:08.830Z,26.77
2023-02-11T03:57:36.221Z,25.93
2023-02-11T04:00:03.570Z,29.67
2023-02-11T04:02:32.904Z,26.50
2023-02-11T04:05:00.247Z,28.17
2023-02-11T04:07:27.844Z,26.37
2023-02-11T04:09:55.206Z,25.13
2023-02-11T04:12:22.587Z,24.47
2023-02-11T04:14:52.216Z,25.27
2023-02-11T04:17:19.871Z,27.80
2023-02-11T04:19:47.368Z,30.03
2023-02-11T04:22:14.675Z,25.13
2023-02-11T04:24:44.085Z,26.10
2023-02-11T04:27:11.366Z,30.97
2023-02-11T04:29:38.658Z,28.30
2023-02-11T04:32:06.236Z,28.20
2023-02-11T04:34:33.605Z,25.20
2023-02-11T04:37:00.923Z,27.33
2023-02-11T04:39:28.257Z,27.30
2023-02-11T04:41:55.508Z,28.27
2023-02-11T04:44:23.018Z,27.90
2023-02-11T04:46:50.346Z,29.60
2023-02-11T04:49:20.800Z,32.87
2023-02-11T04:51:49.500Z,27.90
2023-02-11T04:54:17.518Z,31.27
2023-02-11T04:56:45.126Z,30.07
2023-02-11T04:59:13.346Z,31.87
2023-02-11T05:01:40.937Z,33.50
2023-02-11T05:04:08.431Z,39.07
2023-02-11T05:06:35.725Z,32.90
2023-02-11T05:09:03.108Z,35.13
2023-02-11T05:11:30.624Z,35.57
2023-02-11T05:13:58.035Z,31.43
2023-02-11T05:16:25.450Z,29.00
2023-02-11T05:18:53.820Z,26.37
2023-02-11T05:21:21.267Z,26.83
2023-02-11T05:23:48.509Z,27.20
2023-02-11T05:26:15.819Z,27.33
2023-02-11T05:28:43.594Z,32.67
2023-02-11T05:31:11.280Z,29.80
2023-02-11T05:33:38.854Z,27.47
2023-02-11T05:36:08.497Z,27.20
2023-02-11T05:38:36.204Z,47.47
2023-02-11T05:41:04.027Z,41.83
2023-02-11T05:43:31.510Z,36.40
2023-02-11T05:45:59.015Z,35.17
2023-02-11T05:48:26.378Z,34.47
2023-02-11T05:50:53.737Z,33.47
2023-02-11T05:53:21.092Z,30.57
2023-02-11T05:55:48.511Z,34.30
2023-02-11T05:58:15.981Z,36.77
2023-02-11T06:00:43.272Z,33.33
2023-02-11T06:03:10.737Z,35.83
2023-02-11T06:05:38.093Z,33.90
2023-02-11T06:08:05.608Z,37.47
2023-02-11T06:10:32.885Z,37.53
2023-02-11T06:13:00.529Z,37.97
2023-02-11T06:15:27.802Z,36.30
2023-02-11T06:17:55.119Z,40.13
2023-02-11T06:20:22.492Z,36.43
2023-02-11T06:22:49.727Z,31.13
2023-02-11T06:25:17.295Z,26.13
2023-02-11T06:27:44.613Z,28.70
2023-02-11T06:30:13.465Z,25.60
2023-02-11T06:32:45.482Z,26.13
2023-02-11T06:35:13.900Z,27.33
2023-02-11T06:37:42.254Z,28.90
2023-02-11T06:40:10.169Z,27.37
2023-02-11T06:42:39.260Z,27.63
2023-02-11T06:45:09.104Z,25.00
2023-02-11T06:47:36.481Z,24.57
2023-02-11T06:50:04.431Z,29.33
2023-02-11T06:52:31.948Z,25.63
2023-02-11T06:54:59.283Z,30.57
2023-02-11T06:57:26.587Z,35.40
2023-02-11T06:59:53.881Z,45.27
2023-02-11T07:02:21.428Z,59.57
2023-02-11T07:04:48.870Z,61.67
2023-02-11T07:07:16.487Z,57.43
2023-02-11T07:09:43.766Z,48.87
2023-02-11T07:12:11.663Z,46.40
2023-02-11T07:14:39.102Z,33.70
2023-02-11T07:17:06.398Z,29.10
2023-02-11T07:19:33.747Z,26.73
2023-02-11T07:22:01.029Z,24.03
2023-02-11T07:24:28.450Z,27.10
2023-02-11T07:26:55.673Z,26.87
2023-02-11T07:29:23.024Z,29.80
2023-02-11T07:31:50.543Z,46.47
2023-02-11T07:34:17.842Z,47.63
2023-02-11T07:36:45.266Z,43.27
2023-02-11T07:39:12.904Z,32.73
2023-02-11T07:41:40.200Z,28.23
2023-02-11T07:44:07.926Z,25.43
2023-02-11T07:46:35.836Z,23.70
2023-02-11T07:49:03.201Z,30.23
2023-02-11T07:51:31.233Z,28.10
2023-02-11T07:53:59.273Z,25.07
2023-02-11T07:56:26.684Z,26.83
2023-02-11T07:58:54.313Z,23.60
2023-02-11T08:01:25.312Z,23.87
2023-02-11T08:03:52.846Z,32.87
2023-02-11T08:06:21.107Z,20.30
2023-02-11T08:08:48.458Z,21.23
2023-02-11T08:11:16.966Z,19.40
2023-02-11T08:13:44.644Z,23.77
2023-02-11T08:16:22.965Z,29.87
2023-02-11T08:18:51.187Z,28.77
2023-02-11T08:21:18.859Z,21.60
2023-02-11T08:23:46.800Z,20.17
2023-02-11T08:26:15.820Z,22.47
2023-02-11T08:28:43.823Z,18.70
2023-02-11T08:31:12.612Z,18.97
2023-02-11T08:33:43.160Z,20.60
2023-02-11T08:36:11.947Z,19.43
2023-02-11T08:38:40.700Z,19.17
2023-02-11T08:41:08.010Z,19.60
2023-02-11T08:43:35.704Z,20.63
2023-02-11T08:46:03.186Z,19.90
2023-02-11T08:48:31.576Z,25.10
2023-02-11T08:50:58.928Z,16.57
2023-02-11T08:53:27.754Z,16.90
2023-02-11T08:55:56.285Z,15.50
2023-02-11T08:58:23.620Z,16.30
2023-02-11T09:00:51.414Z,15.83
2023-02-11T09:03:19.088Z,17.60
2023-02-11T09:05:47.616Z,13.13
2023-02-11T09:08:15.701Z,12.37
2023-02-11T09:10:43.468Z,13.90
2023-02-11T09:13:11.111Z,13.67
2023-02-11T09:15:38.341Z,16.47
2023-02-11T09:18:06.545Z,14.07
2023-02-11T09:20:34.239Z,16.90
2023-02-11T09:23:01.622Z,13.97
2023-02-11T09:25:28.925Z,13.30
2023-02-11T09:27:56.601Z,13.90
2023-02-11T09:30:24.018Z,13.97
2023-02-11T09:32:51.331Z,15.27
2023-02-11T09:35:18.633Z,12.70
2023-02-11T09:37:46.137Z,11.73
2023-02-11T09:40:13.883Z,11.40
2023-02-11T09:42:45.245Z,11.13
2023-02-11T09:45:21.472Z,10.73
2023-02-11T09:47:57.313Z,11.63
2023-02-11T09:50:33.361Z,13.93
2023-02-11T09:53:03.728Z,11.13
2023-02-11T09:55:31.168Z,9.60
2023-02-11T09:57:59.333Z,8.53
2023-02-11T10:00:34.390Z,9.70
2023-02-11T10:03:01.784Z,10.17
2023-02-11T10:05:35.075Z,9.33
2023-02-11T10:08:10.198Z,8.67
2023-02-11T10:10:54.887Z,9.57
2023-02-11T10:13:30.048Z,10.47
2023-02-11T10:16:06.340Z,11.00
2023-02-11T10:18:52.732Z,9.63
2023-02-11T10:21:31.479Z,9.87
2023-02-11T10:24:02.724Z,7.50
2023-02-11T10:26:31.541Z,8.70
2023-02-11T10:29:02.200Z,11.17
2023-02-11T10:31:40.609Z,9.47
2023-02-11T10:34:10.234Z,11.83
2023-02-11T10:36:38.998Z,10.83
2023-02-11T10:39:12.511Z,8.53
2023-02-11T10:41:42.511Z,10.00
2023-02-11T10:44:14.171Z,7.43
2023-02-11T10:46:41.715Z,9.13
2023-02-11T10:49:09.111Z,7.13
2023-02-11T10:51:37.960Z,8.23
2023-02-11T10:54:05.409Z,5.93
2023-02-11T10:56:36.570Z,7.37
2023-02-11T10:59:15.351Z,7.27
2023-02-11T11:01:57.823Z,6.70
2023-02-11T11:04:35.025Z,6.90
2023-02-11T11:07:22.430Z,6.47
2023-02-11T11:09:55.054Z,5.77
2023-02-11T11:12:27.492Z,6.10
2023-02-11T11:14:56.594Z,6.00
2023-02-11T11:17:24.063Z,4.80
2023-02-11T11:19:54.715Z,7.27
2023-02-11T11:22:23.081Z,5.13
2023-02-11T11:24:55.571Z,5.13
2023-02-11T11:27:24.914Z,5.70
2023-02-11T11:29:56.575Z,6.00
2023-02-11T11:32:29.732Z,5.73
2023-02-11T11:35:00.922Z,4.83
2023-02-11T11:37:30.170Z,4.97
2023-02-11T11:40:03.049Z,6.73
2023-02-11T11:42:33.156Z,7.20
2023-02-11T11:45:23.464Z,7.90
2023-02-11T11:47:57.229Z,5.27
2023-02-11T11:50:31.978Z,5.63
2023-02-11T11:53:07.826Z,5.70
2023-02-11T11:55:38.676Z,5.07
2023-02-11T11:58:07.037Z,6.40
2023-02-11T12:00:44.959Z,5.07
2023-02-11T12:03:24.328Z,5.17
2023-02-11T12:06:14.634Z,4.77
2023-02-11T12:09:00.747Z,6.57
2023-02-11T12:11:47.142Z,7.10
2023-02-11T12:14:26.849Z,5.63
2023-02-11T12:16:58.787Z,6.73
2023-02-11T12:19:40.586Z,6.27
2023-02-11T12:22:22.819Z,5.13
2023-02-11T12:24:57.608Z,6.30
2023-02-11T12:27:33.886Z,4.33
2023-02-11T12:30:27.965Z,3.50
2023-02-11T12:33:07.845Z,2.60
2023-02-11T12:36:04.442Z,2.45
2023-02-11T12:38:50.377Z,4.32
2023-02-11T12:41:55.509Z,11.23
2023-02-11T12:44:30.722Z,9.40
2023-02-11T12:47:27.224Z,7.83
2023-02-11T12:50:01.505Z,4.70
2023-02-11T12:52:44.028Z,3.67
2023-02-11T12:55:23.422Z,2.43
2023-02-11T12:57:51.617Z,2.73
2023-02-11T13:00:26.521Z,3.23
2023-02-11T13:03:06.586Z,3.13
2023-02-11T13:05:45.946Z,3.53
2023-02-11T13:08:13.171Z,4.60
2023-02-11T13:10:46.916Z,5.90
2023-02-11T13:13:25.496Z,5.30
2023-02-11T13:15:56.936Z,8.83
2023-02-11T13:18:30.504Z,7.77
2023-02-11T13:21:16.475Z,6.67
2023-02-11T13:23:57.953Z,7.03
2023-02-11T13:26:43.786Z,6.67
2023-02-11T13:29:34.622Z,5.23
2023-02-11T13:32:09.818Z,3.30
2023-02-11T13:34:43.316Z,5.23
2023-02-11T13:37:21.827Z,4.00
2023-02-11T13:39:58.559Z,6.73
2023-02-11T13:42:26.159Z,5.03
2023-02-11T13:44:53.806Z,6.77
2023-02-11T13:47:30.752Z,11.47
2023-02-11T13:49:58.941Z,7.57
2023-02-11T13:52:34.041Z,5.60
2023-02-11T13:55:22.331Z,7.57
2023-02-11T13:58:12.862Z,7.07
2023-02-11T14:00:40.396Z,5.07
2023-02-11T14:03:32.647Z,5.90
2023-02-11T14:06:27.730Z,5.07
2023-02-11T14:09:30.564Z,5.93
2023-02-11T14:12:30.334Z,6.70
2023-02-11T14:15:06.699Z,6.07
2023-02-11T14:17:35.530Z,7.43
2023-02-11T14:20:04.879Z,9.23
2023-02-11T14:22:42.255Z,9.37
2023-02-11T14:25:38.962Z,12.07
2023-02-11T14:28:16.851Z,14.27
2023-02-11T14:30:51.745Z,13.77
2023-02-11T14:33:28.600Z,14.20
2023-02-11T14:36:09.453Z,15.47
2023-02-11T14:38:49.337Z,15.30
2023-02-11T14:41:20.024Z,16.63
2023-02-11T14:43:52.188Z,18.27
2023-02-11T14:46:20.305Z,15.73
2023-02-11T14:48:49.399Z,18.07
2023-02-11T14:51:20.240Z,18.30
2023-02-11T14:53:49.012Z,20.57
2023-02-11T14:56:26.655Z,17.73
2023-02-11T14:58:55.022Z,15.17
2023-02-11T15:01:34.240Z,17.60
2023-02-11T15:04:02.832Z,18.43
2023-02-11T15:06:35.015Z,15.47
2023-02-11T15:09:07.219Z,15.53
2023-02-11T15:11:40.193Z,17.83
2023-02-11T15:14:13.278Z,14.23
2023-02-11T15:16:45.908Z,15.37
2023-02-11T15:19:22.602Z,15.40
2023-02-11T15:21:50.964Z,16.23
2023-02-11T15:24:27.289Z,17.10
2023-02-11T15:27:25.928Z,12.50
2023-02-11T15:29:53.534Z,12.33
2023-02-11T15:32:22.311Z,14.60
2023-02-11T15:34:51.083Z,14.80
2023-02-11T15:37:23.435Z,12.70
2023-02-11T15:39:51.968Z,12.90
2023-02-11T15:42:24.342Z,14.87
2023-02-11T15:45:09.009Z,11.13
2023-02-11T15:47:36.585Z,12.53
2023-02-11T15:50:04.252Z,11.97
2023-02-11T15:52:32.467Z,13.10
2023-02-11T15:55:01.777Z,12.70
2023-02-11T15:57:29.416Z,11.93
2023-02-11T15:59:57.478Z,13.53
2023-02-11T16:02:36.509Z,12.00
2023-02-11T16:05:08.772Z,12.70
2023-02-11T16:07:39.855Z,12.33
2023-02-11T16:10:19.631Z,12.77
2023-02-11T16:12:54.331Z,19.73
2023-02-11T16:15:40.355Z,55.20
2023-02-11T16:18:36.743Z,72.37
2023-02-11T16:21:05.967Z,53.80
2023-02-11T16:23:35.172Z,106.83
2023-02-11T16:26:09.052Z,35.43
2023-02-11T16:28:37.501Z,22.47
2023-02-11T16:31:05.372Z,16.43
2023-02-11T16:33:33.069Z,15.07
2023-02-11T16:36:02.242Z,12.80
2023-02-11T16:38:30.477Z,11.47
2023-02-11T16:40:58.171Z,10.87
2023-02-11T16:43:25.520Z,10.53
2023-02-11T16:45:52.976Z,12.43
2023-02-11T16:48:20.989Z,13.20
2023-02-11T16:50:52.880Z,12.10
2023-02-11T16:53:25.068Z,11.93
2023-02-11T16:55:53.640Z,13.03
2023-02-11T16:58:21.290Z,11.70
2023-02-11T17:00:49.227Z,12.03
2023-02-11T17:03:24.167Z,11.40
2023-02-11T17:05:55.675Z,10.43
2023-02-11T17:08:23.355Z,12.63
2023-02-11T17:10:50.923Z,17.27
2023-02-11T17:13:18.367Z,14.47
2023-02-11T17:15:45.753Z,14.13
2023-02-11T17:18:14.633Z,13.80
2023-02-11T17:20:42.475Z,13.87
2023-02-11T17:23:09.821Z,13.03
2023-02-11T17:25:37.465Z,13.70
2023-02-11T17:28:05.554Z,18.30
2023-02-11T17:30:33.081Z,16.70
2023-02-11T17:33:00.353Z,21.17
2023-02-11T17:35:27.710Z,19.63
2023-02-11T17:37:55.106Z,16.97
2023-02-11T17:40:22.582Z,31.77
2023-02-11T17:42:50.958Z,32.93
2023-02-11T17:45:19.869Z,26.27
2023-02-11T17:47:49.755Z,25.27
2023-02-11T17:50:17.119Z,25.27
2023-02-11T17:52:44.852Z,26.50
2023-02-11T17:55:13.112Z,25.83
2023-02-11T17:57:41.321Z,20.43
2023-02-11T18:00:09.605Z,18.63
2023-02-11T18:02:37.589Z,21.93
2023-02-11T18:05:05.883Z,19.70
2023-02-11T18:07:33.987Z,22.97
2023-02-11T18:10:01.310Z,18.87
2023-02-11T18:12:35.073Z,18.57
2023-02-11T18:15:03.037Z,19.13
2023-02-11T18:17:30.864Z,23.70
2023-02-11T18:19:58.531Z,25.90
2023-02-11T18:22:26.351Z,34.50
2023-02-11T18:24:54.256Z,34.80
2023-02-11T18:27:22.527Z,35.93
2023-02-11T18:29:49.951Z,32.73
2023-02-11T18:32:17.304Z,29.97
2023-02-11T18:34:44.752Z,34.73
2023-02-11T18:37:13.484Z,28.17
2023-02-11T18:39:42.289Z,29.97
2023-02-11T18:42:10.068Z,27.43
2023-02-11T18:44:38.126Z,26.83
2023-02-11T18:47:05.758Z,35.10
2023-02-11T18:49:35.949Z,31.13
2023-02-11T18:52:05.441Z,29.67
2023-02-11T18:54:34.139Z,28.87
2023-02-11T18:57:02.204Z,29.43
2023-02-11T18:59:30.356Z,28.40
2023-02-11T19:01:57.754Z,29.47
2023-02-11T19:04:25.233Z,28.57
2023-02-11T19:06:52.745Z,33.33
2023-02-11T19:09:20.817Z,31.93
2023-02-11T19:11:49.858Z,30.20
2023-02-11T19:14:22.325Z,30.77
2023-02-11T19:16:50.697Z,34.37
2023-02-11T19:19:18.948Z,38.67
2023-02-11T19:21:47.491Z,36.00
2023-02-11T19:24:16.250Z,36.50
2023-02-11T19:26:43.803Z,38.50
2023-02-11T19:29:11.149Z,40.07
2023-02-11T19:31:38.593Z,37.30
2023-02-11T19:34:07.676Z,37.77
2023-02-11T19:36:35.261Z,35.73
2023-02-11T19:39:03.166Z,36.33
2023-02-11T19:41:31.916Z,32.70
2023-02-11T19:43:59.177Z,32.50
2023-02-11T19:46:27.200Z,34.40
2023-02-11T19:48:55.802Z,36.73
2023-02-11T19:51:23.148Z,36.40
2023-02-11T19:53:51.353Z,36.00
2023-02-11T19:56:20.820Z,38.10
2023-02-11T19:58:48.296Z,36.07
2023-02-11T20:01:19.807Z,47.33
2023-02-11T20:03:52.458Z,38.70
2023-02-11T20:06:24.207Z,40.33
2023-02-11T20:08:58.294Z,44.43
2023-02-11T20:11:25.991Z,39.57
2023-02-11T20:13:53.278Z,41.60
2023-02-11T20:16:23.152Z,41.27
2023-02-11T20:18:52.016Z,42.17
2023-02-11T20:21:20.698Z,39.27
2023-02-11T20:23:48.940Z,36.33
2023-02-11T20:26:18.158Z,37.17
2023-02-11T20:28:46.322Z,40.90
2023-02-11T20:31:14.628Z,41.47
2023-02-11T20:33:42.715Z,36.77
2023-02-11T20:36:16.499Z,36.17
2023-02-11T20:38:44.224Z,38.00
2023-02-11T20:41:16.513Z,37.07
2023-02-11T20:43:48.021Z,44.83
2023-02-11T20:46:16.984Z,47.73
2023-02-11T20:48:44.929Z,52.67
2023-02-11T20:51:15.050Z,48.87
2023-02-11T20:53:48.363Z,48.43
2023-02-11T20:56:16.483Z,48.57
2023-02-11T20:58:44.090Z,48.37
2023-02-11T21:01:16.768Z,57.40
2023-02-11T21:03:44.884Z,65.50
2023-02-11T21:06:12.694Z,64.77
2023-02-11T21:08:40.165Z,60.10
2023-02-11T21:11:10.427Z,71.00
2023-02-11T21:13:38.579Z,119.53
2023-02-11T21:16:06.146Z,82.30
2023-02-11T21:18:33.612Z,70.37
2023-02-11T21:21:01.510Z,39.13
2023-02-11T21:23:29.282Z,40.90
2023-02-11T21:25:57.254Z,37.43
2023-02-11T21:28:28.171Z,42.10
2023-02-11T21:30:57.434Z,42.07
2023-02-11T21:33:25.528Z,42.30
2023-02-11T21:36:00.352Z,37.90
2023-02-11T21:38:28.190Z,54.87
2023-02-11T21:40:55.952Z,47.03
2023-02-11T21:43:23.751Z,39.47
2023-02-11T21:45:52.236Z,41.50
2023-02-11T21:48:20.572Z,30.80
2023-02-11T21:50:48.954Z,32.37
2023-02-11T21:53:16.634Z,30.17
2023-02-11T21:55:45.842Z,32.47
2023-02-11T21:58:14.424Z,29.97
2023-02-11T22:00:41.906Z,27.57
2023-02-11T22:03:09.360Z,31.57
2023-02-11T22:05:40.121Z,29.43
2023-02-11T22:08:07.762Z,28.60
2023-02-11T22:10:35.017Z,31.37
2023-02-11T22:13:02.346Z,32.43
2023-02-11T22:15:29.636Z,33.70
2023-02-11T22:17:56.944Z,32.80
2023-02-11T22:20:24.450Z,35.30
2023-02-11T22:22:51.851Z,41.07
2023-02-11T22:25:19.269Z,37.70
2023-02-11T22:27:48.125Z,44.13
2023-02-11T22:30:15.436Z,37.80
2023-02-11T22:32:42.737Z,35.37
2023-02-11T22:35:09.997Z,29.93
2023-02-11T22:37:37.486Z,31.87
2023-02-11T22:40:04.935Z,29.10
2023-02-11T22:42:32.277Z,34.73
2023-02-11T22:44:59.579Z,33.07
2023-02-11T22:47:27.011Z,35.27
2023-02-11T22:49:54.318Z,33.23
2023-02-11T22:52:23.469Z,34.80
2023-02-11T22:54:52.350Z,34.13
2023-02-11T22:57:19.695Z,32.30
2023-02-11T22:59:47.052Z,33.27
2023-02-11T23:02:14.616Z,31.87
2023-02-11T23:04:42.099Z,32.17
2023-02-11T23:07:09.544Z,29.50
2023-02-11T23:09:36.791Z,38.17
2023-02-11T23:12:04.263Z,31.33
2023-02-11T23:14:31.832Z,31.60
2023-02-11T23:16:59.296Z,35.00
2023-02-11T23:19:26.718Z,28.50
2023-02-11T23:21:53.969Z,29.93
2023-02-11T23:24:21.397Z,34.33
2023-02-11T23:26:48.775Z,34.53
2023-02-11T23:29:16.398Z,28.83
2023-02-11T23:31:46.676Z,34.37
2023-02-11T23:34:17.280Z,33.17
2023-02-11T23:36:45.213Z,33.27
2023-02-11T23:39:15.536Z,38.50
2023-02-11T23:41:42.921Z,30.53
2023-02-11T23:44:11.044Z,35.63
2023-02-11T23:46:38.562Z,45.93
2023-02-11T23:49:06.248Z,53.23
2023-02-11T23:51:34.127Z,59.10
2023-02-11T23:54:02.682Z,47.43
2023-02-11T23:56:31.065Z,48.83
2023-02-11T23:59:00.533Z,50.60
